createdAt,value
2023-01-20T00:01:33.753Z,3.23
2023-01-20T00:04:01.016Z,3.80
2023-01-20T00:06:29.706Z,3.70
2023-01-20T00:08:59.659Z,3.57
2023-01-20T00:11:28.050Z,6.63
2023-01-20T00:13:57.133Z,4.73
2023-01-20T00:16:25.157Z,3.10
2023-01-20T00:18:52.790Z,3.00
2023-01-20T00:21:20.504Z,6.70
2023-01-20T00:23:48.380Z,4.07
2023-01-20T00:26:20.183Z,3.03
2023-01-20T00:28:48.360Z,4.20
2023-01-20T00:31:30.566Z,3.00
2023-01-20T00:34:00.248Z,5.60
2023-01-20T00:36:31.558Z,3.00
2023-01-20T00:39:00.684Z,4.13
2023-01-20T00:41:27.973Z,3.20
2023-01-20T00:43:55.273Z,2.57
2023-01-20T00:46:23.321Z,2.93
2023-01-20T00:48:50.506Z,3.13
2023-01-20T00:51:17.754Z,2.90
2023-01-20T00:53:44.968Z,3.20
2023-01-20T00:56:12.166Z,2.80
2023-01-20T00:58:39.474Z,3.50
2023-01-20T01:01:06.747Z,2.80
2023-01-20T01:03:33.920Z,2.73
2023-01-20T01:06:12.575Z,5.27
2023-01-20T01:08:39.836Z,2.87
2023-01-20T01:11:07.835Z,2.67
2023-01-20T01:13:35.525Z,5.17
2023-01-20T01:16:02.858Z,2.93
2023-01-20T01:18:30.081Z,3.37
2023-01-20T01:20:57.468Z,2.53
2023-01-20T01:23:24.634Z,3.00
2023-01-20T01:25:52.103Z,5.50
2023-01-20T01:28:19.245Z,3.20
2023-01-20T01:30:46.620Z,4.03
2023-01-20T01:33:13.749Z,3.53
2023-01-20T01:35:40.899Z,3.13
2023-01-20T01:38:08.100Z,3.10
2023-01-20T01:40:35.693Z,3.10
2023-01-20T01:43:02.869Z,3.17
2023-01-20T01:45:30.966Z,4.13
2023-01-20T01:48:01.278Z,5.30
2023-01-20T01:50:42.959Z,3.50
2023-01-20T01:53:10.692Z,4.70
2023-01-20T01:55:42.295Z,4.43
2023-01-20T01:58:13.081Z,3.70
2023-01-20T02:00:40.575Z,3.50
2023-01-20T02:03:08.310Z,3.87
2023-01-20T02:05:37.329Z,4.47
2023-01-20T02:08:05.466Z,4.33
2023-01-20T02:10:32.650Z,4.33
2023-01-20T02:13:01.185Z,4.97
2023-01-20T02:15:39.371Z,4.40
2023-01-20T02:18:12.216Z,4.77
2023-01-20T02:20:54.491Z,3.60
2023-01-20T02:24:00.876Z,3.70
2023-01-20T02:26:51.907Z,5.60
2023-01-20T02:29:37.259Z,3.20
2023-01-20T02:32:09.627Z,3.73
2023-01-20T02:34:43.834Z,3.40
2023-01-20T02:37:40.983Z,2.90
2023-01-20T02:40:31.341Z,2.47
2023-01-20T02:43:26.538Z,2.93
2023-01-20T02:46:33.601Z,3.20
2023-01-20T02:49:18.010Z,3.03
2023-01-20T02:51:54.205Z,3.63
2023-01-20T02:54:23.136Z,3.53
2023-01-20T02:56:53.494Z,3.47
2023-01-20T02:59:26.396Z,4.63
2023-01-20T03:02:21.087Z,4.10
2023-01-20T03:04:53.137Z,3.10
2023-01-20T03:07:24.605Z,4.57
2023-01-20T03:09:56.004Z,2.90
2023-01-20T03:12:33.531Z,3.30
2023-01-20T03:15:01.423Z,3.17
2023-01-20T03:17:28.808Z,2.90
2023-01-20T03:19:56.204Z,2.80
2023-01-20T03:22:23.495Z,4.40
2023-01-20T03:24:51.769Z,3.50
2023-01-20T03:27:19.065Z,3.70
2023-01-20T03:29:46.244Z,3.10
2023-01-20T03:32:14.600Z,5.70
2023-01-20T03:34:43.692Z,3.40
2023-01-20T03:37:13.991Z,3.73
2023-01-20T03:39:41.442Z,3.17
2023-01-20T03:42:31.163Z,6.03
2023-01-20T03:45:09.542Z,3.23
2023-01-20T03:47:50.823Z,2.83
2023-01-20T03:50:33.527Z,3.30
2023-01-20T03:53:30.459Z,3.13
2023-01-20T03:56:28.294Z,2.80
2023-01-20T03:58:58.010Z,2.87
2023-01-20T04:01:35.042Z,3.10
2023-01-20T04:04:04.387Z,4.17
2023-01-20T04:06:33.827Z,3.20
2023-01-20T04:09:39.542Z,2.87
2023-01-20T04:12:07.030Z,2.80
2023-01-20T04:14:36.033Z,2.63
2023-01-20T04:17:04.745Z,4.13
2023-01-20T04:19:32.335Z,2.83
2023-01-20T04:22:12.684Z,3.07
2023-01-20T04:24:51.760Z,2.60
2023-01-20T04:27:19.000Z,3.00
2023-01-20T04:29:46.924Z,2.50
2023-01-20T04:32:14.525Z,2.10
2023-01-20T04:34:41.640Z,3.27
2023-01-20T04:37:08.886Z,2.20
2023-01-20T04:39:36.092Z,2.20
2023-01-20T04:42:04.326Z,3.30
2023-01-20T04:44:31.582Z,2.73
2023-01-20T04:46:59.317Z,3.17
2023-01-20T04:49:26.516Z,2.50
2023-01-20T04:51:53.706Z,2.70
2023-01-20T04:54:20.844Z,4.47
2023-01-20T04:56:51.290Z,3.07
2023-01-20T04:59:18.492Z,3.47
2023-01-20T05:01:45.953Z,3.13
2023-01-20T05:04:13.173Z,2.47
2023-01-20T05:06:42.864Z,2.83
2023-01-20T05:09:16.896Z,3.17
2023-01-20T05:11:44.618Z,2.43
2023-01-20T05:14:14.596Z,2.53
2023-01-20T05:16:41.779Z,2.73
2023-01-20T05:19:10.981Z,2.37
2023-01-20T05:21:38.282Z,2.40
2023-01-20T05:24:05.794Z,3.73
2023-01-20T05:26:33.314Z,2.27
2023-01-20T05:29:00.720Z,2.60
2023-01-20T05:31:27.864Z,2.53
2023-01-20T05:33:55.121Z,3.17
2023-01-20T05:36:22.383Z,2.30
2023-01-20T05:38:49.706Z,2.43
2023-01-20T05:41:16.915Z,2.10
2023-01-20T05:43:44.195Z,2.43
2023-01-20T05:46:11.484Z,2.57
2023-01-20T05:48:38.693Z,2.30
2023-01-20T05:51:06.003Z,2.47
2023-01-20T05:53:33.210Z,3.00
2023-01-20T05:56:01.945Z,2.20
2023-01-20T05:58:29.961Z,2.23
2023-01-20T06:01:05.827Z,3.77
2023-01-20T06:03:33.130Z,5.17
2023-01-20T06:06:01.907Z,2.77
2023-01-20T06:08:29.683Z,2.77
2023-01-20T06:10:56.822Z,2.73
2023-01-20T06:13:23.895Z,2.67
2023-01-20T06:15:55.420Z,3.27
2023-01-20T06:18:23.413Z,3.10
2023-01-20T06:20:50.769Z,3.17
2023-01-20T06:23:18.782Z,3.43
2023-01-20T06:25:46.059Z,3.63
2023-01-20T06:28:13.193Z,3.40
2023-01-20T06:30:43.373Z,3.30
2023-01-20T06:33:10.956Z,3.07
2023-01-20T06:35:38.394Z,3.57
2023-01-20T06:38:05.692Z,3.17
2023-01-20T06:40:32.959Z,4.33
2023-01-20T06:43:00.122Z,3.10
2023-01-20T06:45:27.613Z,3.67
2023-01-20T06:47:54.862Z,3.47
2023-01-20T06:50:22.032Z,3.90
2023-01-20T06:52:49.246Z,3.93
2023-01-20T06:55:16.756Z,3.73
2023-01-20T06:57:44.301Z,4.60
2023-01-20T07:00:12.117Z,3.97
2023-01-20T07:02:39.323Z,3.10
2023-01-20T07:05:08.247Z,2.87
2023-01-20T07:07:35.577Z,5.23
2023-01-20T07:10:03.953Z,3.03
2023-01-20T07:12:31.075Z,3.50
2023-01-20T07:14:58.208Z,3.27
2023-01-20T07:17:25.299Z,4.27
2023-01-20T07:19:52.456Z,2.90
2023-01-20T07:22:19.627Z,5.17
2023-01-20T07:24:46.985Z,3.20
2023-01-20T07:27:15.601Z,3.00
2023-01-20T07:29:42.946Z,3.50
2023-01-20T07:32:10.295Z,3.40
2023-01-20T07:34:37.464Z,3.00
2023-01-20T07:37:04.641Z,3.00
2023-01-20T07:39:32.139Z,3.57
2023-01-20T07:41:59.571Z,2.60
2023-01-20T07:44:26.862Z,2.93
2023-01-20T07:46:54.563Z,2.97
2023-01-20T07:49:21.903Z,2.90
2023-01-20T07:51:49.155Z,2.80
2023-01-20T07:54:16.289Z,2.80
2023-01-20T07:56:43.433Z,3.47
2023-01-20T07:59:11.105Z,3.10
2023-01-20T08:01:38.326Z,3.00
2023-01-20T08:04:05.522Z,3.77
2023-01-20T08:06:32.773Z,2.53
2023-01-20T08:09:01.680Z,2.73
2023-01-20T08:11:29.676Z,3.13
2023-01-20T08:13:56.789Z,2.47
2023-01-20T08:16:24.002Z,2.90
2023-01-20T08:18:54.148Z,3.13
2023-01-20T08:21:27.237Z,3.77
2023-01-20T08:23:59.033Z,3.20
2023-01-20T08:26:29.744Z,4.50
2023-01-20T08:29:02.718Z,3.03
2023-01-20T08:31:30.117Z,2.33
2023-01-20T08:33:57.781Z,2.70
2023-01-20T08:36:28.466Z,3.57
2023-01-20T08:38:57.751Z,3.10
2023-01-20T08:41:30.625Z,2.87
2023-01-20T08:43:59.892Z,2.77
2023-01-20T08:46:27.705Z,2.87
2023-01-20T08:48:56.245Z,2.80
2023-01-20T08:51:27.276Z,3.10
2023-01-20T08:53:54.486Z,4.30
2023-01-20T08:56:22.150Z,3.30
2023-01-20T08:58:49.899Z,3.20
2023-01-20T09:01:20.311Z,3.17
2023-01-20T09:04:03.859Z,3.07
2023-01-20T09:06:43.739Z,3.63
2023-01-20T09:09:11.506Z,3.30
2023-01-20T09:11:40.010Z,3.10
2023-01-20T09:14:07.364Z,4.20
2023-01-20T09:16:34.511Z,2.73
2023-01-20T09:19:03.229Z,2.97
2023-01-20T09:21:30.520Z,2.97
2023-01-20T09:23:57.719Z,3.40
2023-01-20T09:26:35.295Z,3.67
2023-01-20T09:29:09.797Z,3.00
2023-01-20T09:31:40.192Z,3.17
2023-01-20T09:34:08.240Z,5.47
2023-01-20T09:36:35.493Z,3.30
2023-01-20T09:39:21.110Z,2.90
2023-01-20T09:42:08.044Z,5.40
2023-01-20T09:44:54.042Z,3.93
2023-01-20T09:47:36.186Z,3.50
2023-01-20T09:50:30.218Z,3.73
2023-01-20T09:53:15.684Z,3.43
2023-01-20T09:55:55.030Z,3.93
2023-01-20T09:58:41.002Z,3.87
2023-01-20T10:01:31.092Z,4.33
2023-01-20T10:04:24.033Z,5.13
2023-01-20T10:07:13.135Z,4.03
2023-01-20T10:10:09.784Z,4.50
2023-01-20T10:12:43.268Z,4.27
2023-01-20T10:15:16.067Z,4.17
2023-01-20T10:17:50.832Z,4.37
2023-01-20T10:20:40.796Z,4.67
2023-01-20T10:23:11.249Z,5.23
2023-01-20T10:25:50.382Z,4.23
2023-01-20T10:28:44.463Z,5.63
2023-01-20T10:31:18.086Z,5.63
2023-01-20T10:33:45.882Z,5.40
2023-01-20T10:36:21.536Z,5.50
2023-01-20T10:38:52.820Z,4.80
2023-01-20T10:41:28.508Z,5.27
2023-01-20T10:43:56.877Z,5.13
2023-01-20T10:46:42.522Z,4.97
2023-01-20T10:49:31.035Z,4.93
2023-01-20T10:52:08.844Z,4.87
2023-01-20T10:54:37.180Z,4.30
2023-01-20T10:57:07.805Z,4.43
2023-01-20T10:59:42.398Z,4.70
2023-01-20T11:02:28.591Z,3.90
2023-01-20T11:05:02.246Z,3.93
2023-01-20T11:07:32.844Z,4.50
2023-01-20T11:10:13.791Z,3.10
2023-01-20T11:12:42.891Z,3.07
2023-01-20T11:15:31.405Z,3.30
2023-01-20T11:18:16.980Z,3.97
2023-01-20T11:20:50.212Z,3.70
2023-01-20T11:23:34.776Z,3.90
2023-01-20T11:26:28.403Z,3.53
2023-01-20T11:29:00.110Z,3.10
2023-01-20T11:31:48.309Z,5.23
2023-01-20T11:34:26.715Z,3.13
2023-01-20T11:37:05.825Z,4.00
2023-01-20T11:39:34.111Z,4.13
2023-01-20T11:42:15.542Z,3.50
2023-01-20T11:44:47.729Z,4.30
2023-01-20T11:47:27.662Z,4.03
2023-01-20T11:50:25.533Z,4.10
2023-01-20T11:52:52.962Z,4.13
2023-01-20T11:55:24.560Z,4.47
2023-01-20T11:58:01.217Z,4.93
2023-01-20T12:00:30.066Z,3.90
2023-01-20T12:03:03.348Z,3.73
2023-01-20T12:05:55.228Z,3.70
2023-01-20T12:08:35.042Z,4.97
2023-01-20T12:11:07.553Z,4.23
2023-01-20T12:14:22.760Z,4.30
2023-01-20T12:17:03.575Z,3.53
2023-01-20T12:19:54.263Z,4.00
2023-01-20T12:22:53.445Z,3.93
2023-01-20T12:25:30.958Z,3.97
2023-01-20T12:28:19.848Z,3.70
2023-01-20T12:31:00.916Z,4.00
2023-01-20T12:33:34.156Z,4.00
2023-01-20T12:36:31.277Z,4.17
2023-01-20T12:39:35.305Z,3.63
2023-01-20T12:42:14.295Z,4.10
2023-01-20T12:45:01.373Z,5.00
2023-01-20T12:47:40.617Z,4.13
2023-01-20T12:50:32.912Z,4.30
2023-01-20T12:53:23.023Z,4.70
2023-01-20T12:56:12.488Z,4.17
2023-01-20T12:59:11.243Z,4.37
2023-01-20T13:01:38.520Z,4.50
2023-01-20T13:04:26.297Z,4.10
2023-01-20T13:07:02.426Z,4.17
2023-01-20T13:09:49.983Z,5.07
2023-01-20T13:12:37.755Z,5.07
2023-01-20T13:15:10.782Z,4.50
2023-01-20T13:18:13.444Z,4.13
2023-01-20T13:20:45.706Z,5.67
2023-01-20T13:23:21.026Z,4.50
2023-01-20T13:25:49.105Z,4.17
2023-01-20T13:28:27.984Z,5.23
2023-01-20T13:31:00.070Z,5.33
2023-01-20T13:33:35.350Z,5.10
2023-01-20T13:36:14.724Z,5.20
2023-01-20T13:38:43.043Z,5.20
2023-01-20T13:41:11.529Z,5.03
2023-01-20T13:43:44.813Z,4.63
2023-01-20T13:46:11.983Z,4.60
2023-01-20T13:49:04.139Z,4.47
2023-01-20T13:51:37.412Z,4.27
2023-01-20T13:54:24.143Z,4.60
2023-01-20T13:56:52.744Z,4.20
2023-01-20T13:59:20.105Z,7.00
2023-01-20T14:01:47.288Z,4.30
2023-01-20T14:04:20.639Z,3.83
2023-01-20T14:06:50.445Z,4.33
2023-01-20T14:09:26.236Z,3.90
2023-01-20T14:11:57.820Z,3.73
2023-01-20T14:14:26.904Z,4.03
2023-01-20T14:16:55.958Z,3.90
2023-01-20T14:19:35.224Z,3.90
2023-01-20T14:22:16.767Z,3.93
2023-01-20T14:24:45.689Z,3.90
2023-01-20T14:27:20.283Z,3.60
2023-01-20T14:29:49.912Z,4.10
2023-01-20T14:32:34.363Z,3.93
2023-01-20T14:35:04.700Z,4.03
2023-01-20T14:37:37.714Z,3.70
2023-01-20T14:40:28.787Z,3.93
2023-01-20T14:43:01.394Z,3.17
2023-01-20T14:45:32.153Z,3.63
2023-01-20T14:48:02.153Z,4.17
2023-01-20T14:50:29.849Z,3.60
2023-01-20T14:52:57.270Z,3.40
2023-01-20T14:55:31.736Z,3.50
2023-01-20T14:57:59.423Z,5.27
2023-01-20T15:00:34.321Z,3.37
2023-01-20T15:03:24.083Z,3.70
2023-01-20T15:05:59.165Z,4.57
2023-01-20T15:08:33.655Z,3.53
2023-01-20T15:11:18.932Z,3.87
2023-01-20T15:13:53.178Z,4.87
2023-01-20T15:16:29.982Z,3.93
2023-01-20T15:19:15.581Z,6.23
2023-01-20T15:21:56.569Z,5.53
2023-01-20T15:24:34.752Z,6.33
2023-01-20T15:27:04.223Z,6.37
2023-01-20T15:29:34.229Z,7.23
2023-01-20T15:32:13.120Z,6.60
2023-01-20T15:34:40.362Z,7.50
2023-01-20T15:37:18.556Z,6.90
2023-01-20T15:39:45.911Z,6.40
2023-01-20T15:42:15.329Z,6.60
2023-01-20T15:44:42.507Z,6.70
2023-01-20T15:47:31.172Z,6.80
2023-01-20T15:49:58.871Z,6.80
2023-01-20T15:52:26.494Z,6.30
2023-01-20T15:54:54.014Z,5.80
2023-01-20T15:57:21.105Z,5.20
2023-01-20T15:59:49.883Z,5.43
2023-01-20T16:02:23.896Z,6.23
2023-01-20T16:04:51.269Z,5.90
2023-01-20T16:07:20.152Z,5.27
2023-01-20T16:09:47.617Z,6.07
2023-01-20T16:12:17.257Z,5.70
2023-01-20T16:14:44.713Z,6.70
2023-01-20T16:17:21.161Z,8.07
2023-01-20T16:19:51.819Z,6.23
2023-01-20T16:22:18.998Z,7.50
2023-01-20T16:24:49.095Z,8.23
2023-01-20T16:27:22.132Z,7.23
2023-01-20T16:29:49.936Z,6.40
2023-01-20T16:32:18.788Z,6.83
2023-01-20T16:34:47.523Z,7.00
2023-01-20T16:37:15.116Z,7.17
2023-01-20T16:39:42.335Z,7.00
2023-01-20T16:42:14.581Z,6.67
2023-01-20T16:44:41.939Z,6.50
2023-01-20T16:47:09.155Z,6.77
2023-01-20T16:49:36.405Z,6.90
2023-01-20T16:52:05.157Z,7.47
2023-01-20T16:54:32.274Z,6.97
2023-01-20T16:57:00.615Z,7.60
2023-01-20T16:59:27.800Z,5.77
2023-01-20T17:02:03.917Z,5.93
2023-01-20T17:04:31.642Z,6.40
2023-01-20T17:06:58.916Z,6.07
2023-01-20T17:09:26.224Z,6.13
2023-01-20T17:11:53.408Z,5.17
2023-01-20T17:14:20.673Z,6.10
2023-01-20T17:16:48.305Z,5.80
2023-01-20T17:19:17.674Z,7.57
2023-01-20T17:21:45.182Z,5.63
2023-01-20T17:24:12.808Z,5.93
2023-01-20T17:26:40.158Z,7.10
2023-01-20T17:29:08.695Z,6.67
2023-01-20T17:31:37.190Z,6.50
2023-01-20T17:34:05.897Z,6.50
2023-01-20T17:36:34.982Z,7.13
2023-01-20T17:39:04.137Z,6.10
2023-01-20T17:41:32.294Z,6.67
2023-01-20T17:43:59.610Z,7.70
2023-01-20T17:46:29.887Z,6.33
2023-01-20T17:48:58.785Z,6.90
2023-01-20T17:51:28.328Z,6.60
2023-01-20T17:53:57.015Z,6.83
2023-01-20T17:56:24.541Z,10.13
2023-01-20T17:58:51.869Z,9.13
2023-01-20T18:01:22.384Z,9.40
2023-01-20T18:03:52.690Z,7.00
2023-01-20T18:06:23.014Z,7.90
2023-01-20T18:08:58.886Z,8.90
2023-01-20T18:11:29.091Z,7.67
2023-01-20T18:13:58.469Z,10.43
2023-01-20T18:16:32.392Z,8.00
2023-01-20T18:18:59.790Z,7.47
2023-01-20T18:21:32.924Z,6.70
2023-01-20T18:24:01.316Z,5.30
2023-01-20T18:26:30.677Z,4.90
2023-01-20T18:29:00.152Z,5.10
2023-01-20T18:31:29.692Z,5.37
2023-01-20T18:33:59.838Z,6.03
2023-01-20T18:36:29.870Z,5.87
2023-01-20T18:38:59.795Z,5.40
2023-01-20T18:41:31.050Z,6.70
2023-01-20T18:44:00.058Z,7.10
2023-01-20T18:46:30.202Z,7.37
2023-01-20T18:48:57.915Z,7.20
2023-01-20T18:51:28.265Z,6.53
2023-01-20T18:54:08.267Z,5.40
2023-01-20T18:56:37.895Z,5.30
2023-01-20T18:59:08.044Z,5.53
2023-01-20T19:01:39.814Z,4.63
2023-01-20T19:04:12.396Z,4.73
2023-01-20T19:06:45.600Z,4.30
2023-01-20T19:09:19.027Z,5.20
2023-01-20T19:11:47.771Z,4.97
2023-01-20T19:14:15.678Z,4.87
2023-01-20T19:16:45.605Z,4.70
2023-01-20T19:19:13.883Z,5.87
2023-01-20T19:21:42.683Z,7.10
2023-01-20T19:24:21.646Z,6.93
2023-01-20T19:26:52.038Z,7.97
2023-01-20T19:29:26.088Z,8.30
2023-01-20T19:32:00.031Z,8.13
2023-01-20T19:34:28.790Z,8.87
2023-01-20T19:36:57.634Z,9.37
2023-01-20T19:39:27.474Z,8.57
2023-01-20T19:41:58.631Z,9.17
2023-01-20T19:44:28.067Z,8.10
2023-01-20T19:47:00.761Z,7.93
2023-01-20T19:49:33.195Z,6.93
2023-01-20T19:52:02.308Z,7.60
2023-01-20T19:54:31.580Z,10.73
2023-01-20T19:57:00.219Z,9.40
2023-01-20T19:59:32.791Z,10.10
2023-01-20T20:02:00.893Z,10.87
2023-01-20T20:04:28.242Z,10.37
2023-01-20T20:07:01.938Z,7.57
2023-01-20T20:09:30.917Z,10.10
2023-01-20T20:12:05.364Z,16.07
2023-01-20T20:14:34.279Z,19.63
2023-01-20T20:17:02.140Z,11.20
2023-01-20T20:19:30.450Z,12.33
2023-01-20T20:21:59.824Z,14.90
2023-01-20T20:24:28.218Z,12.00
2023-01-20T20:26:59.323Z,13.03
2023-01-20T20:29:30.264Z,13.60
2023-01-20T20:32:02.835Z,12.57
2023-01-20T20:34:32.926Z,12.57
2023-01-20T20:37:03.609Z,15.53
2023-01-20T20:39:32.923Z,14.03
2023-01-20T20:42:00.883Z,13.30
2023-01-20T20:44:28.223Z,13.43
2023-01-20T20:46:55.543Z,13.03
2023-01-20T20:49:23.116Z,13.73
2023-01-20T20:51:50.499Z,13.00
2023-01-20T20:54:18.041Z,12.33
2023-01-20T20:56:46.082Z,11.90
2023-01-20T20:59:22.760Z,11.30
2023-01-20T21:01:54.696Z,11.53
2023-01-20T21:04:22.778Z,12.80
2023-01-20T21:06:50.498Z,12.63
2023-01-20T21:09:17.959Z,11.77
2023-01-20T21:11:45.263Z,12.83
2023-01-20T21:14:12.585Z,12.73
2023-01-20T21:16:40.216Z,15.83
2023-01-20T21:19:09.264Z,12.23
2023-01-20T21:21:37.911Z,43.30
2023-01-20T21:24:10.141Z,13.73
2023-01-20T21:26:37.443Z,25.63
2023-01-20T21:29:04.973Z,35.93
2023-01-20T21:31:34.454Z,12.90
2023-01-20T21:34:01.829Z,10.13
2023-01-20T21:36:30.626Z,21.50
2023-01-20T21:38:59.797Z,74.97
2023-01-20T21:41:27.060Z,17.57
2023-01-20T21:44:12.761Z,43.27
2023-01-20T21:46:40.910Z,44.70
2023-01-20T21:49:27.454Z,28.27
2023-01-20T21:52:14.586Z,19.77
2023-01-20T21:54:42.347Z,7.33
2023-01-20T21:57:09.704Z,7.03
2023-01-20T21:59:37.470Z,7.33
2023-01-20T22:02:04.798Z,7.63
2023-01-20T22:04:33.097Z,9.80
2023-01-20T22:07:00.685Z,12.87
2023-01-20T22:09:27.978Z,7.40
2023-01-20T22:11:55.888Z,17.40
2023-01-20T22:14:23.276Z,7.80
2023-01-20T22:16:50.623Z,13.10
2023-01-20T22:19:17.935Z,7.57
2023-01-20T22:21:45.195Z,10.03
2023-01-20T22:24:12.386Z,6.40
2023-01-20T22:26:40.095Z,7.17
2023-01-20T22:29:07.309Z,7.97
2023-01-20T22:31:34.624Z,8.43
2023-01-20T22:34:06.726Z,8.40
2023-01-20T22:36:34.318Z,7.83
2023-01-20T22:39:02.933Z,26.67
2023-01-20T22:41:30.601Z,9.77
2023-01-20T22:43:58.359Z,8.40
2023-01-20T22:46:28.845Z,18.13
2023-01-20T22:48:59.656Z,8.87
2023-01-20T22:51:28.946Z,8.67
2023-01-20T22:53:58.778Z,15.30
2023-01-20T22:56:28.281Z,9.43
2023-01-20T22:58:59.583Z,9.23
2023-01-20T23:01:29.781Z,14.50
2023-01-20T23:04:03.002Z,14.97
2023-01-20T23:06:33.244Z,12.80
2023-01-20T23:09:03.101Z,22.63
2023-01-20T23:11:31.179Z,18.00
2023-01-20T23:13:58.485Z,10.60
2023-01-20T23:16:26.695Z,18.00
2023-01-20T23:18:54.026Z,22.83
2023-01-20T23:21:22.644Z,13.63
2023-01-20T23:23:54.531Z,13.43
2023-01-20T23:26:25.159Z,12.27
2023-01-20T23:28:53.776Z,24.33
2023-01-20T23:31:23.293Z,12.13
2023-01-20T23:33:51.154Z,17.17
2023-01-20T23:36:21.062Z,20.53
2023-01-20T23:38:48.296Z,20.30
2023-01-20T23:41:17.234Z,40.07
2023-01-20T23:43:44.806Z,55.67
2023-01-20T23:46:12.191Z,36.00
2023-01-20T23:48:40.047Z,13.67
2023-01-20T23:51:07.937Z,15.23
2023-01-20T23:53:39.221Z,11.33
2023-01-20T23:56:19.005Z,11.83
2023-01-20T23:58:47.269Z,14.20
